createdAt,value
2023-04-19T00:01:46.226Z,55.36
2023-04-19T00:04:15.518Z,55.25
2023-04-19T00:06:43.915Z,56.22
2023-04-19T00:09:11.834Z,54.91
2023-04-19T00:11:41.941Z,54.42
2023-04-19T00:14:09.959Z,54.78
2023-04-19T00:16:37.949Z,53.84
2023-04-19T00:19:05.982Z,52.99
2023-04-19T00:21:33.823Z,53.50
2023-04-19T00:24:03.848Z,53.41
2023-04-19T00:26:31.785Z,52.74
2023-04-19T00:29:01.252Z,51.61
2023-04-19T00:31:29.285Z,52.05
2023-04-19T00:33:58.329Z,51.26
2023-04-19T00:36:28.006Z,51.29
2023-04-19T00:38:55.893Z,52.69
2023-04-19T00:41:23.812Z,51.40
2023-04-19T00:43:51.704Z,50.54
2023-04-19T00:46:21.579Z,50.78
2023-04-19T00:48:50.538Z,51.90
2023-04-19T00:51:18.622Z,51.75
2023-04-19T00:53:46.993Z,51.02
2023-04-19T00:56:16.251Z,51.05
2023-04-19T00:58:44.961Z,50.87
2023-04-19T01:01:12.973Z,50.24
2023-04-19T01:03:44.030Z,50.89
2023-04-19T01:06:12.184Z,51.09
2023-04-19T01:08:43.033Z,50.76
2023-04-19T01:11:11.046Z,52.03
2023-04-19T01:13:39.101Z,51.10
2023-04-19T01:16:08.329Z,50.54
2023-04-19T01:18:37.698Z,50.98
2023-04-19T01:21:09.173Z,50.05
2023-04-19T01:23:39.444Z,50.74
2023-04-19T01:26:07.527Z,51.39
2023-04-19T01:28:35.439Z,51.13
2023-04-19T01:31:03.831Z,51.87
2023-04-19T01:33:31.810Z,51.83
2023-04-19T01:35:59.732Z,51.00
2023-04-19T01:38:27.743Z,52.02
2023-04-19T01:40:57.328Z,51.73
2023-04-19T01:43:25.971Z,52.13
2023-04-19T01:45:53.896Z,53.51
2023-04-19T01:48:21.888Z,52.34
2023-04-19T01:50:49.779Z,52.35
2023-04-19T01:53:17.751Z,51.88
2023-04-19T01:55:45.683Z,52.88
2023-04-19T01:58:14.941Z,53.07
2023-04-19T02:00:42.990Z,51.87
2023-04-19T02:03:11.220Z,52.60
2023-04-19T02:05:40.263Z,52.45
2023-04-19T02:08:08.370Z,52.49
2023-04-19T02:10:36.209Z,52.43
2023-04-19T02:13:04.175Z,53.06
2023-04-19T02:15:33.494Z,52.37
2023-04-19T02:18:01.491Z,53.24
2023-04-19T02:20:29.500Z,54.21
2023-04-19T02:22:57.505Z,54.43
2023-04-19T02:25:25.456Z,53.41
2023-04-19T02:27:53.746Z,54.74
2023-04-19T02:30:22.025Z,54.06
2023-04-19T02:32:54.975Z,54.23
2023-04-19T02:35:23.087Z,54.40
2023-04-19T02:37:51.214Z,55.07
2023-04-19T02:40:19.719Z,55.40
2023-04-19T02:42:47.672Z,55.44
2023-04-19T02:45:15.672Z,54.99
2023-04-19T02:47:43.638Z,54.74
2023-04-19T02:50:13.629Z,55.24
2023-04-19T02:52:47.364Z,56.20
2023-04-19T02:55:15.390Z,56.54
2023-04-19T02:57:43.981Z,56.04
2023-04-19T03:00:13.997Z,56.31
2023-04-19T03:02:48.540Z,57.38
2023-04-19T03:05:18.047Z,57.72
2023-04-19T03:07:46.149Z,56.89
2023-04-19T03:10:14.120Z,56.44
2023-04-19T03:12:43.175Z,57.08
2023-04-19T03:15:12.004Z,57.11
2023-04-19T03:17:40.018Z,58.33
2023-04-19T03:20:11.563Z,59.87
2023-04-19T03:22:41.092Z,58.86
2023-04-19T03:25:12.467Z,57.47
2023-04-19T03:27:42.522Z,58.59
2023-04-19T03:30:14.426Z,59.53
2023-04-19T03:32:44.802Z,60.32
2023-04-19T03:35:14.043Z,59.92
2023-04-19T03:37:43.552Z,59.56
2023-04-19T03:40:12.303Z,59.47
2023-04-19T03:42:40.397Z,60.06
2023-04-19T03:45:14.005Z,60.58
2023-04-19T03:47:46.956Z,61.68
2023-04-19T03:50:14.953Z,61.45
2023-04-19T03:52:48.206Z,61.86
2023-04-19T03:55:16.222Z,61.71
2023-04-19T03:57:44.411Z,62.90
2023-04-19T04:00:21.115Z,62.57
2023-04-19T04:02:55.609Z,62.70
2023-04-19T04:05:24.069Z,63.56
2023-04-19T04:07:53.573Z,63.73
2023-04-19T04:10:22.999Z,64.16
2023-04-19T04:12:51.017Z,63.46
2023-04-19T04:15:25.854Z,63.43
2023-04-19T04:17:55.278Z,63.22
2023-04-19T04:20:23.258Z,62.33
2023-04-19T04:22:57.041Z,62.20
2023-04-19T04:25:25.940Z,62.88
2023-04-19T04:27:54.678Z,62.37
2023-04-19T04:30:27.693Z,61.91
2023-04-19T04:32:59.045Z,63.68
2023-04-19T04:35:28.992Z,65.54
2023-04-19T04:38:17.570Z,64.86
2023-04-19T04:40:53.765Z,64.71
2023-04-19T04:43:22.705Z,64.92
2023-04-19T04:45:51.081Z,65.39
2023-04-19T04:48:19.864Z,65.08
2023-04-19T04:50:47.925Z,65.75
2023-04-19T04:53:17.232Z,65.72
2023-04-19T04:55:46.908Z,66.58
2023-04-19T04:58:15.433Z,65.72
2023-04-19T05:00:53.161Z,65.98
2023-04-19T05:03:21.450Z,65.32
2023-04-19T05:05:56.379Z,65.71
2023-04-19T05:08:28.038Z,65.89
2023-04-19T05:11:10.316Z,66.40
2023-04-19T05:13:39.273Z,66.53
2023-04-19T05:16:07.637Z,66.62
2023-04-19T05:18:36.261Z,65.08
2023-04-19T05:21:04.488Z,67.02
2023-04-19T05:23:35.147Z,66.55
2023-04-19T05:26:03.094Z,64.86
2023-04-19T05:28:31.350Z,64.93
2023-04-19T05:31:10.128Z,66.09
2023-04-19T05:33:46.476Z,65.83
2023-04-19T05:36:15.382Z,65.97
2023-04-19T05:38:44.783Z,64.12
2023-04-19T05:41:13.698Z,64.52
2023-04-19T05:43:41.630Z,64.57
2023-04-19T05:46:10.179Z,63.79
2023-04-19T05:48:38.315Z,65.21
2023-04-19T05:51:31.862Z,63.45
2023-04-19T05:54:13.646Z,58.39
2023-04-19T05:56:45.735Z,58.72
2023-04-19T05:59:14.661Z,59.40
2023-04-19T06:01:42.920Z,59.81
2023-04-19T06:04:11.110Z,59.40
2023-04-19T06:06:39.797Z,58.31
2023-04-19T06:09:07.908Z,54.09
2023-04-19T06:11:46.979Z,53.35
2023-04-19T06:14:18.190Z,55.47
2023-04-19T06:16:46.658Z,53.52
2023-04-19T06:19:14.781Z,52.86
2023-04-19T06:21:42.719Z,54.22
2023-04-19T06:24:10.928Z,54.25
2023-04-19T06:26:40.254Z,57.26
2023-04-19T06:29:08.144Z,54.93
2023-04-19T06:31:36.188Z,56.07
2023-04-19T06:34:04.112Z,53.73
2023-04-19T06:36:32.133Z,56.95
2023-04-19T06:39:00.118Z,54.36
2023-04-19T06:41:28.034Z,52.91
2023-04-19T06:43:57.243Z,54.15
2023-04-19T06:46:25.270Z,54.42
2023-04-19T06:48:53.427Z,53.47
2023-04-19T06:51:21.374Z,53.23
2023-04-19T06:53:50.635Z,51.24
2023-04-19T06:56:18.582Z,52.73
2023-04-19T06:58:46.433Z,53.20
2023-04-19T07:01:15.762Z,52.85
2023-04-19T07:03:43.892Z,51.25
2023-04-19T07:06:11.856Z,50.03
2023-04-19T07:08:49.385Z,49.47
2023-04-19T07:11:20.268Z,48.97
2023-04-19T07:13:49.112Z,51.35
2023-04-19T07:16:18.538Z,50.95
2023-04-19T07:18:46.463Z,46.78
2023-04-19T07:21:14.522Z,45.37
2023-04-19T07:23:42.558Z,48.20
2023-04-19T07:26:10.622Z,45.85
2023-04-19T07:28:40.240Z,48.18
2023-04-19T07:31:08.201Z,46.11
2023-04-19T07:33:37.575Z,46.08
2023-04-19T07:36:06.658Z,44.54
2023-04-19T07:38:34.496Z,45.63
2023-04-19T07:41:02.490Z,46.49
2023-04-19T07:43:31.355Z,45.32
2023-04-19T07:45:59.280Z,45.80
2023-04-19T07:48:27.242Z,45.59
2023-04-19T07:50:56.571Z,44.98
2023-04-19T07:53:24.491Z,44.16
2023-04-19T07:55:52.884Z,44.00
2023-04-19T07:58:20.909Z,43.34
2023-04-19T08:00:48.846Z,44.47
2023-04-19T08:03:16.984Z,43.19
2023-04-19T08:05:45.119Z,43.97
2023-04-19T08:08:14.414Z,44.43
2023-04-19T08:10:42.320Z,43.50
2023-04-19T08:13:10.421Z,42.21
2023-04-19T08:16:20.493Z,42.56
2023-04-19T08:18:26.669Z,42.44
2023-04-19T08:20:55.688Z,42.03
2023-04-19T08:23:31.801Z,42.58
2023-04-19T08:26:02.906Z,40.84
2023-04-19T08:28:31.327Z,39.45
2023-04-19T08:31:00.457Z,39.63
2023-04-19T08:33:29.741Z,40.35
2023-04-19T08:35:57.639Z,38.90
2023-04-19T08:38:26.895Z,40.79
2023-04-19T08:40:56.175Z,39.74
2023-04-19T08:43:28.729Z,39.37
2023-04-19T08:45:57.691Z,39.51
2023-04-19T08:48:26.533Z,38.32
2023-04-19T08:51:04.938Z,37.26
2023-04-19T08:53:36.583Z,37.53
2023-04-19T08:56:20.632Z,38.66
2023-04-19T08:59:00.997Z,37.32
2023-04-19T09:01:41.579Z,37.89
2023-04-19T09:04:34.917Z,40.11
2023-04-19T09:06:58.859Z,38.38
2023-04-19T09:12:01.538Z,39.87
2023-04-19T09:14:30.190Z,37.94
2023-04-19T09:17:15.722Z,38.33
2023-04-19T09:19:47.930Z,37.02
2023-04-19T09:22:16.558Z,39.66
2023-04-19T09:25:22.729Z,37.56
2023-04-19T09:27:36.338Z,35.45
2023-04-19T09:30:06.689Z,35.38
2023-04-19T09:32:47.631Z,37.49
2023-04-19T09:35:15.964Z,36.26
2023-04-19T09:40:26.875Z,37.55
2023-04-19T09:43:07.340Z,36.44
2023-04-19T09:45:44.945Z,35.05
2023-04-19T09:48:13.887Z,34.74
2023-04-19T09:50:57.445Z,32.42
2023-04-19T09:53:29.227Z,31.84
2023-04-19T09:56:02.114Z,34.02
2023-04-19T09:58:42.529Z,35.76
2023-04-19T10:01:18.561Z,32.34
2023-04-19T10:03:49.885Z,32.92
2023-04-19T10:08:51.797Z,31.00
2023-04-19T10:11:22.980Z,32.68
2023-04-19T10:13:56.315Z,32.07
2023-04-19T10:16:24.385Z,31.55
2023-04-19T10:18:53.360Z,33.30
2023-04-19T10:21:21.675Z,31.71
2023-04-19T10:23:50.239Z,31.38
2023-04-19T10:26:18.161Z,30.62
2023-04-19T10:28:49.538Z,31.13
2023-04-19T10:31:23.612Z,34.25
2023-04-19T10:33:52.516Z,31.77
2023-04-19T10:36:22.217Z,31.29
2023-04-19T10:38:52.263Z,32.38
2023-04-19T10:41:20.897Z,31.94
2023-04-19T10:44:10.925Z,32.42
2023-04-19T10:46:41.006Z,31.12
2023-04-19T10:49:10.010Z,33.17
2023-04-19T10:51:39.771Z,31.64
2023-04-19T10:54:08.530Z,30.65
2023-04-19T10:57:00.108Z,30.81
2023-04-19T10:59:31.191Z,30.11
2023-04-19T11:02:00.981Z,31.90
2023-04-19T11:05:01.777Z,31.28
2023-04-19T11:07:29.955Z,31.49
2023-04-19T11:09:57.875Z,30.23
2023-04-19T11:12:25.824Z,30.16
2023-04-19T11:14:59.897Z,31.10
2023-04-19T11:17:31.520Z,31.02
2023-04-19T11:20:01.189Z,31.51
2023-04-19T11:22:33.660Z,34.34
2023-04-19T11:25:09.595Z,31.56
2023-04-19T11:27:38.610Z,31.32
2023-04-19T11:30:11.448Z,32.69
2023-04-19T11:32:48.235Z,31.84
2023-04-19T11:35:16.928Z,32.51
2023-04-19T11:37:44.786Z,32.83
2023-04-19T11:40:16.894Z,32.36
2023-04-19T11:42:45.247Z,33.26
2023-04-19T11:45:30.162Z,36.17
2023-04-19T11:48:00.989Z,35.79
2023-04-19T11:50:37.112Z,36.96
2023-04-19T11:53:13.579Z,36.43
2023-04-19T11:55:44.431Z,35.69
2023-04-19T11:58:29.327Z,35.27
2023-04-19T12:01:06.691Z,37.84
2023-04-19T12:03:35.697Z,37.15
2023-04-19T12:06:05.098Z,36.29
2023-04-19T12:08:34.189Z,35.49
2023-04-19T12:11:03.391Z,34.82
2023-04-19T12:13:32.583Z,35.76
2023-04-19T12:16:02.489Z,35.52
2023-04-19T12:18:44.565Z,34.58
2023-04-19T12:21:12.796Z,35.27
2023-04-19T12:23:40.670Z,35.19
2023-04-19T12:26:08.601Z,36.35
2023-04-19T12:28:36.567Z,33.95
2023-04-19T12:31:06.486Z,37.08
2023-04-19T12:33:34.348Z,37.40
2023-04-19T12:36:02.248Z,36.42
2023-04-19T12:38:30.143Z,34.00
2023-04-19T12:40:58.041Z,34.52
2023-04-19T12:43:25.951Z,33.83
2023-04-19T12:45:54.212Z,35.23
2023-04-19T12:48:23.712Z,34.07
2023-04-19T12:50:51.975Z,36.13
2023-04-19T12:53:20.098Z,37.18
2023-04-19T12:55:49.662Z,36.17
2023-04-19T12:58:18.636Z,35.75
2023-04-19T13:00:46.568Z,34.67
2023-04-19T13:03:14.842Z,36.47
2023-04-19T13:05:44.197Z,36.65
2023-04-19T13:08:12.112Z,36.06
2023-04-19T13:10:40.113Z,35.17
2023-04-19T13:13:08.009Z,35.91
2023-04-19T13:15:36.083Z,32.51
2023-04-19T13:18:04.149Z,33.00
2023-04-19T13:20:32.022Z,34.74
2023-04-19T13:23:01.265Z,32.88
2023-04-19T13:25:29.163Z,35.13
2023-04-19T13:27:56.995Z,33.56
2023-04-19T13:30:25.157Z,32.96
2023-04-19T13:32:52.993Z,32.17
2023-04-19T13:35:21.803Z,33.06
2023-04-19T13:37:51.170Z,33.29
2023-04-19T13:40:20.672Z,32.72
2023-04-19T13:42:48.646Z,33.00
2023-04-19T13:45:16.582Z,34.46
2023-04-19T13:47:44.598Z,33.94
2023-04-19T13:50:13.081Z,35.09
2023-04-19T13:52:41.147Z,33.65
2023-04-19T13:55:09.940Z,32.94
2023-04-19T13:57:39.201Z,33.50
2023-04-19T14:00:08.648Z,35.31
2023-04-19T14:02:36.936Z,34.41
2023-04-19T14:05:05.580Z,34.58
2023-04-19T14:07:33.878Z,36.05
2023-04-19T14:10:02.038Z,37.47
2023-04-19T14:12:29.906Z,35.49
2023-04-19T14:14:59.288Z,35.41
2023-04-19T14:17:27.383Z,37.98
2023-04-19T14:19:55.264Z,39.67
2023-04-19T14:22:23.213Z,40.33
2023-04-19T14:24:51.137Z,37.75
2023-04-19T14:27:19.232Z,39.98
2023-04-19T14:29:47.281Z,37.44
2023-04-19T14:32:26.149Z,36.74
2023-04-19T14:34:55.785Z,36.10
2023-04-19T14:37:24.804Z,35.93
2023-04-19T14:39:52.785Z,38.83
2023-04-19T14:42:22.923Z,39.07
2023-04-19T14:44:52.518Z,39.60
2023-04-19T14:47:22.468Z,36.73
2023-04-19T14:49:50.629Z,37.50
2023-04-19T14:52:18.501Z,38.69
2023-04-19T14:54:46.433Z,39.50
2023-04-19T14:57:14.513Z,37.69
2023-04-19T14:59:42.481Z,38.42
2023-04-19T15:02:13.248Z,40.21
2023-04-19T15:04:43.111Z,40.18
2023-04-19T15:07:11.489Z,44.39
2023-04-19T15:09:40.394Z,45.12
2023-04-19T15:12:08.702Z,47.98
2023-04-19T15:14:37.027Z,47.21
2023-04-19T15:17:05.228Z,50.19
2023-04-19T15:19:33.502Z,54.77
2023-04-19T15:22:04.182Z,54.51
2023-04-19T15:24:33.009Z,56.13
2023-04-19T15:27:01.611Z,58.83
2023-04-19T15:29:30.075Z,62.00
2023-04-19T15:31:58.196Z,65.92
2023-04-19T15:34:26.329Z,64.15
2023-04-19T15:36:54.222Z,68.89
2023-04-19T15:39:23.468Z,69.70
2023-04-19T15:41:52.133Z,68.15
2023-04-19T15:44:20.067Z,67.42
2023-04-19T15:46:47.982Z,68.09
2023-04-19T15:49:16.165Z,71.04
2023-04-19T15:51:44.285Z,68.97
2023-04-19T15:54:12.237Z,67.95
2023-04-19T15:56:41.497Z,71.08
2023-04-19T15:59:09.387Z,71.08
2023-04-19T16:01:37.317Z,69.37
2023-04-19T16:04:05.696Z,68.10
2023-04-19T16:06:33.814Z,71.29
2023-04-19T16:09:01.708Z,67.84
2023-04-19T16:11:29.928Z,71.12
2023-04-19T16:13:59.169Z,67.82
2023-04-19T16:16:30.859Z,69.96
2023-04-19T16:18:58.862Z,71.21
2023-04-19T16:21:28.630Z,69.23
2023-04-19T16:23:56.840Z,71.16
2023-04-19T16:26:24.854Z,70.38
2023-04-19T16:28:52.718Z,68.64
2023-04-19T16:31:21.952Z,72.18
2023-04-19T16:33:49.826Z,70.00
2023-04-19T16:36:17.970Z,68.96
2023-04-19T16:38:45.834Z,68.52
2023-04-19T16:41:13.793Z,68.88
2023-04-19T16:43:41.629Z,71.28
2023-04-19T16:46:09.598Z,72.51
2023-04-19T16:48:38.826Z,72.24
2023-04-19T16:51:06.922Z,74.16
2023-04-19T16:53:34.777Z,72.11
2023-04-19T16:56:03.614Z,73.51
2023-04-19T16:58:31.735Z,76.37
2023-04-19T17:00:59.726Z,76.72
2023-04-19T17:03:29.448Z,75.45
2023-04-19T17:05:59.216Z,75.51
2023-04-19T17:08:27.176Z,74.36
2023-04-19T17:10:55.074Z,73.59
2023-04-19T17:13:22.991Z,71.31
2023-04-19T17:15:50.916Z,74.01
2023-04-19T17:18:18.857Z,75.40
2023-04-19T17:20:46.709Z,73.50
2023-04-19T17:23:15.987Z,74.54
2023-04-19T17:25:44.162Z,77.33
2023-04-19T17:28:12.043Z,76.14
2023-04-19T17:30:39.923Z,78.57
2023-04-19T17:33:07.883Z,76.13
2023-04-19T17:35:36.050Z,77.28
2023-04-19T17:38:03.952Z,75.83
2023-04-19T17:40:33.166Z,76.11
2023-04-19T17:43:00.985Z,77.76
2023-04-19T17:45:29.143Z,75.62
2023-04-19T17:47:57.057Z,76.36
2023-04-19T17:50:26.382Z,76.54
2023-04-19T17:52:55.004Z,75.01
2023-04-19T17:55:23.039Z,76.07
2023-04-19T17:57:52.318Z,77.09
2023-04-19T18:00:20.643Z,76.27
2023-04-19T18:02:49.575Z,77.56
2023-04-19T18:05:18.341Z,76.69
2023-04-19T18:07:46.284Z,76.00
2023-04-19T18:10:14.119Z,75.11
2023-04-19T18:12:42.011Z,73.36
2023-04-19T18:15:12.455Z,74.94
2023-04-19T18:17:41.148Z,74.80
2023-04-19T18:20:11.288Z,73.80
2023-04-19T18:22:41.076Z,73.33
2023-04-19T18:25:09.762Z,73.36
2023-04-19T18:27:37.644Z,75.12
2023-04-19T18:30:07.966Z,74.67
2023-04-19T18:32:37.463Z,76.11
2023-04-19T18:35:08.714Z,74.42
2023-04-19T18:37:36.715Z,76.25
2023-04-19T18:40:06.992Z,74.43
2023-04-19T18:42:34.976Z,76.75
2023-04-19T18:45:04.138Z,75.45
2023-04-19T18:47:32.185Z,76.98
2023-04-19T18:50:05.977Z,76.00
2023-04-19T18:52:35.433Z,76.95
2023-04-19T18:55:03.708Z,78.20
2023-04-19T18:57:34.482Z,79.61
2023-04-19T19:00:05.577Z,77.76
2023-04-19T19:02:36.065Z,76.54
2023-04-19T19:05:07.393Z,76.04
2023-04-19T19:07:37.136Z,77.44
2023-04-19T19:10:18.500Z,76.70
2023-04-19T19:12:50.039Z,76.58
2023-04-19T19:15:18.140Z,77.20
2023-04-19T19:17:49.845Z,76.17
2023-04-19T19:20:19.991Z,76.76
2023-04-19T19:22:48.301Z,75.43
2023-04-19T19:25:16.302Z,78.71
2023-04-19T19:27:58.373Z,75.91
2023-04-19T19:30:33.882Z,75.83
2023-04-19T19:33:05.022Z,74.70
2023-04-19T19:35:34.414Z,74.83
2023-04-19T19:38:02.219Z,74.93
2023-04-19T19:40:32.371Z,76.14
2023-04-19T19:43:01.256Z,75.60
2023-04-19T19:45:29.652Z,76.24
2023-04-19T19:47:59.096Z,76.30
2023-04-19T19:51:02.137Z,76.51
2023-04-19T19:53:19.253Z,79.21
2023-04-19T19:55:47.221Z,78.24
2023-04-19T19:58:32.626Z,76.33
2023-04-19T20:01:03.940Z,78.84
2023-04-19T20:03:37.557Z,76.00
2023-04-19T20:08:43.699Z,76.96
2023-04-19T20:11:11.952Z,76.99
2023-04-19T20:13:39.804Z,77.18
2023-04-19T20:16:07.748Z,76.43
2023-04-19T20:18:37.793Z,77.18
2023-04-19T20:21:05.710Z,75.88
2023-04-19T20:23:33.566Z,76.28
2023-04-19T20:26:02.810Z,80.07
2023-04-19T20:28:30.669Z,78.49
2023-04-19T20:30:58.578Z,80.05
2023-04-19T20:33:28.195Z,78.18
2023-04-19T20:35:56.753Z,78.88
2023-04-19T20:38:26.490Z,79.08
2023-04-19T20:40:54.728Z,78.07
2023-04-19T20:43:23.991Z,78.79
2023-04-19T20:45:52.105Z,77.69
2023-04-19T20:48:19.939Z,78.95
2023-04-19T20:50:47.756Z,78.25
2023-04-19T20:53:15.658Z,77.89
2023-04-19T20:55:43.618Z,78.52
2023-04-19T20:58:11.911Z,78.55
2023-04-19T21:00:41.155Z,78.99
2023-04-19T21:03:09.143Z,78.19
2023-04-19T21:05:37.084Z,79.33
2023-04-19T21:08:05.297Z,78.43
2023-04-19T21:10:33.218Z,77.69
2023-04-19T21:13:01.134Z,77.32
2023-04-19T21:15:29.367Z,76.95
2023-04-19T21:17:58.689Z,76.87
2023-04-19T21:20:26.815Z,79.82
2023-04-19T21:22:54.692Z,79.01
2023-04-19T21:25:22.719Z,78.65
2023-04-19T21:27:50.568Z,77.19
2023-04-19T21:30:18.507Z,79.67
2023-04-19T21:32:46.561Z,78.44
2023-04-19T21:35:15.898Z,77.61
2023-04-19T21:37:43.857Z,79.09
2023-04-19T21:40:12.380Z,80.62
2023-04-19T21:42:40.308Z,79.73
2023-04-19T21:45:09.191Z,79.06
2023-04-19T21:47:37.099Z,81.31
2023-04-19T21:50:05.496Z,80.23
2023-04-19T21:52:34.747Z,78.96
2023-04-19T21:55:02.627Z,78.03
2023-04-19T21:57:31.056Z,77.26
2023-04-19T21:59:59.033Z,80.75
2023-04-19T22:02:27.061Z,76.84
2023-04-19T22:04:54.970Z,76.65
2023-04-19T22:07:23.959Z,77.01
2023-04-19T22:09:54.330Z,76.89
2023-04-19T22:12:22.200Z,77.69
2023-04-19T22:14:50.086Z,78.68
2023-04-19T22:17:19.224Z,78.74
2023-04-19T22:19:47.635Z,78.35
2023-04-19T22:22:15.671Z,77.50
2023-04-19T22:24:56.145Z,76.79
2023-04-19T22:27:26.817Z,75.76
2023-04-19T22:29:54.742Z,76.38
2023-04-19T22:32:22.947Z,78.41
2023-04-19T22:34:51.077Z,75.99
2023-04-19T22:37:18.972Z,75.81
2023-04-19T22:39:46.897Z,76.05
2023-04-19T22:42:14.906Z,76.41
2023-04-19T22:44:44.198Z,75.55
2023-04-19T22:47:13.120Z,75.32
2023-04-19T22:49:43.072Z,74.99
2023-04-19T22:52:11.719Z,75.72
2023-04-19T22:54:39.674Z,74.66
2023-04-19T22:57:07.575Z,75.34
2023-04-19T22:59:35.490Z,75.73
2023-04-19T23:02:04.842Z,75.01
2023-04-19T23:04:35.108Z,74.13
2023-04-19T23:07:03.815Z,74.45
2023-04-19T23:09:31.687Z,75.99
2023-04-19T23:12:00.498Z,75.34
2023-04-19T23:14:28.407Z,75.09
2023-04-19T23:16:57.120Z,77.65
2023-04-19T23:19:26.381Z,76.67
2023-04-19T23:21:54.259Z,76.32
2023-04-19T23:24:22.186Z,76.71
2023-04-19T23:26:50.060Z,75.49
2023-04-19T23:29:18.161Z,75.07
2023-04-19T23:31:46.355Z,75.21
2023-04-19T23:34:14.983Z,74.91
2023-04-19T23:36:44.280Z,74.73
2023-04-19T23:39:12.334Z,74.76
2023-04-19T23:41:40.234Z,75.24
2023-04-19T23:44:08.156Z,74.89
2023-04-19T23:46:36.424Z,75.38
2023-04-19T23:49:04.266Z,74.50
2023-04-19T23:51:32.882Z,74.52
2023-04-19T23:54:02.083Z,75.14
2023-04-19T23:56:30.032Z,75.87
2023-04-19T23:58:58.462Z,74.72
